createdAt,value
2018-06-05T00:00:23.665Z,16.77
2018-06-05T00:01:23.691Z,16.80
2018-06-05T00:02:23.716Z,16.82
2018-06-05T00:03:23.732Z,16.76
2018-06-05T00:04:23.755Z,16.79
2018-06-05T00:05:23.780Z,16.73
2018-06-05T00:06:23.808Z,16.69
2018-06-05T00:07:23.822Z,16.76
2018-06-05T00:08:23.846Z,16.72
2018-06-05T00:09:23.873Z,16.64
2018-06-05T00:10:23.899Z,16.68
2018-06-05T00:11:23.911Z,16.62
2018-06-05T00:12:23.937Z,16.58
2018-06-05T00:13:23.963Z,16.58
2018-06-05T00:14:23.977Z,16.61
2018-06-05T00:15:24.003Z,16.62
2018-06-05T00:16:24.030Z,16.55
2018-06-05T00:17:24.043Z,16.55
2018-06-05T00:18:24.068Z,16.58
2018-06-05T00:19:24.094Z,16.49
2018-06-05T00:20:24.122Z,16.44
2018-06-05T00:21:24.134Z,16.46
2018-06-05T00:22:24.161Z,16.41
2018-06-05T00:23:24.186Z,16.46
2018-06-05T00:24:24.199Z,16.41
2018-06-05T00:25:24.224Z,16.51
2018-06-05T00:26:24.250Z,16.47
2018-06-05T00:27:24.267Z,16.39
2018-06-05T00:28:24.290Z,16.40
2018-06-05T00:29:24.316Z,16.44
2018-06-05T00:30:24.341Z,16.39
2018-06-05T00:31:24.355Z,16.39
2018-06-05T00:32:24.384Z,16.31
2018-06-05T00:33:24.407Z,16.31
2018-06-05T00:34:24.420Z,16.34
2018-06-05T00:35:24.451Z,16.34
2018-06-05T00:36:24.473Z,16.36
2018-06-05T00:37:24.485Z,16.25
2018-06-05T00:38:24.511Z,16.40
2018-06-05T00:39:24.538Z,16.32
2018-06-05T00:40:24.556Z,16.32
2018-06-05T00:41:24.577Z,16.29
2018-06-05T00:42:24.603Z,16.29
2018-06-05T00:43:24.629Z,16.21
2018-06-05T00:44:24.643Z,16.28
2018-06-05T00:45:24.668Z,16.21
2018-06-05T00:46:24.695Z,16.25
2018-06-05T00:47:24.707Z,16.24
2018-06-05T00:48:24.735Z,16.24
2018-06-05T00:49:24.760Z,16.22
2018-06-05T00:50:24.772Z,16.13
2018-06-05T00:51:24.799Z,16.18
2018-06-05T00:52:24.823Z,16.18
2018-06-05T00:53:24.838Z,16.17
2018-06-05T00:54:24.863Z,16.16
2018-06-05T00:55:24.891Z,16.10
2018-06-05T00:56:24.903Z,16.12
2018-06-05T00:57:24.942Z,16.16
2018-06-05T00:58:24.954Z,16.09
2018-06-05T00:59:24.969Z,16.09
2018-06-05T01:00:24.996Z,16.13
2018-06-05T01:01:25.021Z,16.08
2018-06-05T01:02:25.047Z,16.13
2018-06-05T01:03:25.059Z,16.17
2018-06-05T01:04:25.103Z,16.08
2018-06-05T01:05:25.111Z,16.12
2018-06-05T01:06:25.125Z,16.08
2018-06-05T01:07:25.151Z,16.12
2018-06-05T01:08:25.177Z,16.09
2018-06-05T01:09:25.190Z,16.10
2018-06-05T01:10:25.215Z,16.03
2018-06-05T01:11:25.241Z,16.03
2018-06-05T01:12:25.262Z,15.99
2018-06-05T01:13:25.281Z,15.99
2018-06-05T01:14:25.309Z,15.99
2018-06-05T01:15:25.321Z,16.03
2018-06-05T01:16:25.347Z,16.03
2018-06-05T01:17:25.373Z,15.98
2018-06-05T01:18:25.386Z,15.92
2018-06-05T01:19:25.472Z,16.02
2018-06-05T01:20:25.438Z,15.90
2018-06-05T01:21:25.450Z,15.91
2018-06-05T01:22:25.477Z,15.94
2018-06-05T01:23:25.506Z,15.91
2018-06-05T01:24:25.516Z,15.87
2018-06-05T01:25:25.544Z,15.99
2018-06-05T01:26:25.568Z,15.87
2018-06-05T01:27:25.582Z,15.84
2018-06-05T01:28:25.608Z,15.88
2018-06-05T01:29:25.633Z,15.90
2018-06-05T01:30:25.660Z,15.85
2018-06-05T01:31:25.673Z,15.85
2018-06-05T01:32:25.700Z,15.90
2018-06-05T01:33:25.714Z,15.87
2018-06-05T01:34:25.737Z,15.92
2018-06-05T01:35:25.765Z,15.92
2018-06-05T01:36:25.778Z,15.83
2018-06-05T01:37:25.805Z,15.85
2018-06-05T01:38:25.830Z,15.96
2018-06-05T01:39:25.842Z,15.99
2018-06-05T01:40:25.869Z,15.96
2018-06-05T01:41:25.907Z,15.94
2018-06-05T01:42:25.909Z,16.00
2018-06-05T01:43:25.937Z,15.91
2018-06-05T01:44:25.960Z,15.99
2018-06-05T01:45:25.973Z,16.03
2018-06-05T01:46:26.001Z,16.03
2018-06-05T01:47:26.025Z,16.05
2018-06-05T01:48:26.040Z,16.05
2018-06-05T01:49:26.065Z,16.12
2018-06-05T01:50:26.091Z,16.03
2018-06-05T01:51:26.105Z,16.05
2018-06-05T01:52:26.130Z,16.06
2018-06-05T01:53:26.157Z,16.16
2018-06-05T01:54:26.171Z,16.08
2018-06-05T01:55:26.197Z,16.12
2018-06-05T01:56:26.222Z,16.12
2018-06-05T01:57:26.235Z,16.13
2018-06-05T01:58:26.261Z,16.17
2018-06-05T01:59:26.286Z,16.24
2018-06-05T02:00:26.302Z,16.18
2018-06-05T02:01:26.328Z,16.21
2018-06-05T02:02:26.354Z,16.24
2018-06-05T02:03:26.365Z,16.22
2018-06-05T02:04:26.391Z,16.18
2018-06-05T02:05:26.417Z,16.25
2018-06-05T02:06:26.433Z,16.25
2018-06-05T02:07:26.457Z,16.26
2018-06-05T02:08:26.484Z,16.26
2018-06-05T02:09:26.497Z,16.26
2018-06-05T02:10:26.522Z,16.26
2018-06-05T02:11:26.548Z,16.25
2018-06-05T02:12:26.561Z,16.28
2018-06-05T02:13:26.589Z,16.29
2018-06-05T02:14:26.614Z,16.21
2018-06-05T02:15:26.627Z,16.26
2018-06-05T02:16:26.654Z,16.29
2018-06-05T02:17:26.679Z,16.28
2018-06-05T02:18:26.693Z,16.25
2018-06-05T02:19:26.722Z,16.28
2018-06-05T02:20:26.744Z,16.24
2018-06-05T02:21:26.759Z,16.18
2018-06-05T02:22:26.784Z,16.13
2018-06-05T02:23:26.811Z,16.22
2018-06-05T02:24:26.835Z,16.17
2018-06-05T02:25:26.851Z,16.09
2018-06-05T02:26:26.875Z,16.18
2018-06-05T02:27:26.888Z,16.18
2018-06-05T02:28:26.914Z,16.18
2018-06-05T02:29:26.940Z,16.18
2018-06-05T02:30:26.979Z,16.13
2018-06-05T02:31:26.980Z,16.13
2018-06-05T02:32:27.007Z,16.16
2018-06-05T02:33:27.020Z,16.08
2018-06-05T02:34:27.045Z,16.17
2018-06-05T02:35:27.071Z,16.16
2018-06-05T02:36:27.088Z,16.18
2018-06-05T02:37:27.111Z,16.17
2018-06-05T02:38:27.137Z,16.18
2018-06-05T02:39:27.151Z,16.12
2018-06-05T02:40:27.175Z,16.16
2018-06-05T02:41:27.201Z,16.18
2018-06-05T02:42:27.227Z,16.28
2018-06-05T02:43:27.241Z,16.17
2018-06-05T02:44:27.267Z,16.17
2018-06-05T02:45:27.281Z,16.17
2018-06-05T02:46:27.307Z,16.24
2018-06-05T02:47:27.331Z,16.18
2018-06-05T02:48:27.357Z,16.24
2018-06-05T02:49:27.372Z,16.28
2018-06-05T02:50:27.398Z,16.29
2018-06-05T02:51:27.412Z,16.28
2018-06-05T02:52:27.449Z,16.26
2018-06-05T02:53:27.462Z,16.34
2018-06-05T02:54:27.488Z,16.36
2018-06-05T02:55:27.502Z,16.29
2018-06-05T02:56:27.528Z,16.26
2018-06-05T02:57:27.555Z,16.34
2018-06-05T02:58:27.568Z,16.32
2018-06-05T02:59:27.605Z,16.24
2018-06-05T03:00:27.632Z,16.31
2018-06-05T03:01:27.637Z,16.34
2018-06-05T03:02:27.658Z,16.31
2018-06-05T03:03:27.687Z,16.37
2018-06-05T03:04:27.699Z,16.32
2018-06-05T03:05:27.723Z,16.31
2018-06-05T03:06:27.750Z,16.31
2018-06-05T03:07:27.763Z,16.43
2018-06-05T03:08:27.790Z,16.43
2018-06-05T03:09:27.815Z,16.37
2018-06-05T03:10:27.829Z,16.43
2018-06-05T03:11:27.854Z,16.41
2018-06-05T03:12:27.880Z,16.39
2018-06-05T03:13:27.897Z,16.41
2018-06-05T03:14:27.922Z,16.51
2018-06-05T03:15:27.953Z,16.43
2018-06-05T03:16:27.961Z,16.46
2018-06-05T03:17:27.985Z,16.40
2018-06-05T03:18:28.011Z,16.54
2018-06-05T03:19:28.037Z,16.57
2018-06-05T03:20:28.052Z,16.49
2018-06-05T03:21:28.077Z,16.50
2018-06-05T03:22:28.103Z,16.57
2018-06-05T03:23:28.116Z,16.49
2018-06-05T03:24:28.141Z,16.55
2018-06-05T03:25:28.167Z,16.57
2018-06-05T03:26:28.181Z,16.54
2018-06-05T03:27:28.208Z,16.58
2018-06-05T03:28:28.237Z,16.61
2018-06-05T03:29:28.248Z,16.62
2018-06-05T03:30:28.272Z,16.58
2018-06-05T03:31:28.298Z,16.64
2018-06-05T03:32:28.324Z,16.66
2018-06-05T03:33:28.338Z,16.66
2018-06-05T03:34:28.364Z,16.65
2018-06-05T03:35:28.389Z,16.72
2018-06-05T03:36:28.417Z,16.72
2018-06-05T03:37:28.429Z,16.86
2018-06-05T03:38:28.454Z,16.76
2018-06-05T03:39:28.468Z,16.73
2018-06-05T03:40:28.494Z,16.79
2018-06-05T03:41:28.521Z,16.73
2018-06-05T03:42:28.547Z,16.80
2018-06-05T03:43:28.560Z,16.77
2018-06-05T03:44:28.587Z,16.74
2018-06-05T03:45:28.612Z,16.79
2018-06-05T03:46:28.625Z,16.82
2018-06-05T03:47:28.651Z,16.72
2018-06-05T03:48:28.676Z,16.83
2018-06-05T03:49:28.702Z,16.87
2018-06-05T03:50:28.715Z,16.86
2018-06-05T03:51:28.741Z,16.83
2018-06-05T03:52:28.767Z,16.89
2018-06-05T03:53:28.782Z,16.87
2018-06-05T03:54:28.808Z,16.86
2018-06-05T03:55:28.833Z,16.86
2018-06-05T03:56:28.904Z,16.94
2018-06-05T03:57:28.872Z,16.94
2018-06-05T03:58:28.900Z,16.95
2018-06-05T03:59:28.913Z,16.89
2018-06-05T04:00:28.940Z,17.01
2018-06-05T04:01:28.964Z,16.92
2018-06-05T04:02:28.990Z,16.87
2018-06-05T04:03:29.006Z,16.98
2018-06-05T04:04:29.030Z,16.92
2018-06-05T04:05:29.055Z,16.91
2018-06-05T04:06:29.069Z,16.97
2018-06-05T04:07:29.095Z,16.92
2018-06-05T04:08:29.121Z,16.95
2018-06-05T04:09:29.147Z,16.95
2018-06-05T04:10:29.160Z,16.98
2018-06-05T04:11:29.185Z,17.01
2018-06-05T04:12:29.211Z,17.04
2018-06-05T04:13:29.225Z,17.04
2018-06-05T04:14:29.251Z,16.98
2018-06-05T04:15:29.277Z,17.04
2018-06-05T04:16:29.291Z,17.07
2018-06-05T04:17:29.316Z,17.10
2018-06-05T04:18:29.342Z,17.04
2018-06-05T04:19:29.381Z,17.12
2018-06-05T04:20:29.385Z,17.09
2018-06-05T04:21:29.408Z,17.12
2018-06-05T04:22:29.435Z,17.12
2018-06-05T04:23:29.448Z,17.13
2018-06-05T04:24:29.472Z,17.20
2018-06-05T04:25:29.500Z,17.20
2018-06-05T04:26:29.526Z,17.24
2018-06-05T04:27:29.559Z,17.27
2018-06-05T04:28:29.565Z,17.28
2018-06-05T04:29:29.590Z,17.32
2018-06-05T04:30:29.617Z,17.27
2018-06-05T04:31:29.629Z,17.35
2018-06-05T04:32:29.668Z,17.31
2018-06-05T04:33:29.683Z,17.37
2018-06-05T04:34:29.695Z,17.37
2018-06-05T04:35:29.722Z,17.39
2018-06-05T04:36:29.746Z,17.38
2018-06-05T04:37:29.772Z,17.38
2018-06-05T04:38:29.787Z,17.41
2018-06-05T04:39:29.825Z,17.44
2018-06-05T04:40:29.837Z,17.47
2018-06-05T04:41:29.866Z,17.54
2018-06-05T04:42:29.877Z,17.54
2018-06-05T04:43:29.912Z,17.50
2018-06-05T04:44:29.930Z,17.63
2018-06-05T04:45:29.956Z,17.54
2018-06-05T04:46:29.971Z,17.59
2018-06-05T04:47:29.994Z,17.63
2018-06-05T04:48:30.021Z,17.60
2018-06-05T04:49:30.049Z,17.57
2018-06-05T04:50:30.064Z,17.52
2018-06-05T04:51:30.087Z,17.69
2018-06-05T04:52:30.112Z,17.60
2018-06-05T04:53:30.142Z,17.63
2018-06-05T04:54:30.151Z,17.65
2018-06-05T04:55:30.178Z,17.65
2018-06-05T04:56:30.203Z,17.72
2018-06-05T04:57:30.228Z,17.75
2018-06-05T04:58:30.243Z,17.76
2018-06-05T04:59:30.267Z,17.76
2018-06-05T05:00:30.294Z,17.80
2018-06-05T05:01:30.320Z,17.80
2018-06-05T05:02:30.347Z,17.86
2018-06-05T05:03:30.359Z,17.82
2018-06-05T05:04:30.384Z,17.82
2018-06-05T05:05:30.411Z,17.80
2018-06-05T05:06:30.438Z,17.84
2018-06-05T05:07:30.451Z,17.91
2018-06-05T05:08:30.477Z,17.94
2018-06-05T05:09:30.505Z,17.95
2018-06-05T05:10:30.531Z,17.86
2018-06-05T05:11:30.547Z,17.87
2018-06-05T05:12:30.567Z,17.91
2018-06-05T05:13:30.594Z,17.98
2018-06-05T05:14:30.620Z,17.95
2018-06-05T05:15:30.634Z,17.95
2018-06-05T05:16:30.659Z,18.03
2018-06-05T05:17:30.685Z,18.02
2018-06-05T05:18:30.711Z,18.02
2018-06-05T05:19:30.737Z,17.98
2018-06-05T05:20:30.749Z,18.02
2018-06-05T05:21:30.776Z,17.98
2018-06-05T05:22:30.801Z,18.05
2018-06-05T05:23:30.828Z,18.02
2018-06-05T05:24:30.843Z,17.95
2018-06-05T05:25:30.869Z,18.03
2018-06-05T05:26:30.894Z,17.98
2018-06-05T05:27:30.925Z,17.98
2018-06-05T05:28:30.945Z,18.06
2018-06-05T05:29:30.958Z,18.16
2018-06-05T05:30:30.985Z,18.13
2018-06-05T05:31:31.023Z,18.11
2018-06-05T05:32:31.037Z,18.13
2018-06-05T05:33:31.062Z,18.21
2018-06-05T05:34:31.076Z,18.16
2018-06-05T05:35:31.103Z,18.12
2018-06-05T05:36:31.128Z,18.09
2018-06-05T05:37:31.153Z,18.15
2018-06-05T05:38:31.181Z,18.15
2018-06-05T05:39:31.192Z,18.16
2018-06-05T05:40:31.218Z,18.19
2018-06-05T05:41:31.245Z,18.12
2018-06-05T05:42:31.270Z,18.16
2018-06-05T05:43:31.285Z,18.15
2018-06-05T05:44:31.310Z,18.16
2018-06-05T05:45:31.336Z,18.19
2018-06-05T05:46:31.363Z,18.15
2018-06-05T05:47:31.389Z,18.16
2018-06-05T05:48:31.401Z,18.16
2018-06-05T05:49:31.431Z,18.27
2018-06-05T05:50:31.465Z,18.27
2018-06-05T05:51:31.479Z,18.31
2018-06-05T05:52:31.504Z,18.30
2018-06-05T05:53:31.519Z,18.33
2018-06-05T05:54:31.577Z,18.27
2018-06-05T05:55:31.571Z,18.39
2018-06-05T05:56:31.597Z,18.30
2018-06-05T05:57:31.611Z,18.27
2018-06-05T05:58:31.635Z,18.27
2018-06-05T05:59:31.661Z,18.27
2018-06-05T06:00:31.700Z,18.28
2018-06-05T06:01:31.715Z,18.36
2018-06-05T06:02:31.739Z,18.36
2018-06-05T06:03:31.754Z,18.42
2018-06-05T06:04:31.780Z,18.45
2018-06-05T06:05:31.806Z,18.45
2018-06-05T06:06:31.832Z,18.48
2018-06-05T06:07:31.858Z,18.51
2018-06-05T06:08:31.872Z,18.49
2018-06-05T06:09:31.896Z,18.48
2018-06-05T06:10:31.922Z,18.48
2018-06-05T06:11:31.949Z,18.60
2018-06-05T06:12:31.974Z,18.49
2018-06-05T06:13:31.988Z,18.49
2018-06-05T06:14:32.014Z,18.51
2018-06-05T06:15:32.040Z,18.53
2018-06-05T06:16:32.066Z,18.51
2018-06-05T06:17:32.092Z,18.49
2018-06-05T06:18:32.106Z,18.52
2018-06-05T06:19:32.130Z,18.49
2018-06-05T06:20:32.157Z,18.49
2018-06-05T06:21:32.184Z,18.51
2018-06-05T06:22:32.210Z,18.46
2018-06-05T06:23:32.224Z,18.51
2018-06-05T06:24:32.249Z,18.52
2018-06-05T06:25:32.275Z,18.52
2018-06-05T06:26:32.302Z,18.45
2018-06-05T06:27:32.327Z,18.55
2018-06-05T06:28:32.352Z,18.51
2018-06-05T06:29:32.379Z,18.53
2018-06-05T06:30:32.390Z,18.48
2018-06-05T06:31:32.417Z,18.51
2018-06-05T06:32:32.444Z,18.48
2018-06-05T06:33:32.470Z,18.51
2018-06-05T06:34:32.483Z,18.52
2018-06-05T06:35:32.509Z,18.45
2018-06-05T06:36:32.534Z,18.43
2018-06-05T06:37:32.560Z,18.45
2018-06-05T06:38:32.603Z,18.42
2018-06-05T06:39:32.599Z,18.41
2018-06-05T06:40:32.626Z,18.45
2018-06-05T06:41:32.651Z,18.41
2018-06-05T06:42:32.677Z,18.39
2018-06-05T06:43:32.704Z,18.45
2018-06-05T06:44:32.717Z,18.42
2018-06-05T06:45:32.744Z,18.45
2018-06-05T06:46:32.786Z,18.36
2018-06-05T06:47:32.797Z,18.43
2018-06-05T06:48:32.829Z,18.42
2018-06-05T06:49:32.834Z,18.52
2018-06-05T06:50:32.860Z,18.52
2018-06-05T06:51:32.886Z,18.49
2018-06-05T06:52:32.912Z,18.57
2018-06-05T06:53:32.937Z,18.61
2018-06-05T06:54:33.035Z,18.61
2018-06-05T06:55:32.978Z,18.68
2018-06-05T06:56:33.003Z,18.68
2018-06-05T06:57:33.030Z,18.67
2018-06-05T06:58:33.055Z,18.76
2018-06-05T06:59:33.080Z,18.79
2018-06-05T07:00:33.108Z,18.83
2018-06-05T07:01:33.120Z,18.88
2018-06-05T07:02:33.145Z,18.91
2018-06-05T07:03:33.184Z,19.00
2018-06-05T07:04:33.211Z,18.98
2018-06-05T07:05:33.224Z,18.96
2018-06-05T07:06:33.239Z,18.92
2018-06-05T07:07:33.264Z,19.04
2018-06-05T07:08:33.290Z,18.92
2018-06-05T07:09:33.316Z,19.00
2018-06-05T07:10:33.343Z,18.98
2018-06-05T07:11:33.369Z,18.96
2018-06-05T07:12:33.394Z,18.97
2018-06-05T07:13:33.406Z,18.98
2018-06-05T07:14:33.432Z,18.94
2018-06-05T07:15:33.458Z,19.01
2018-06-05T07:16:33.484Z,18.97
2018-06-05T07:17:33.509Z,18.96
2018-06-05T07:18:33.537Z,18.98
2018-06-05T07:19:33.550Z,19.07
2018-06-05T07:20:33.579Z,19.08
2018-06-05T07:21:33.602Z,19.12
2018-06-05T07:22:33.628Z,19.09
2018-06-05T07:23:33.657Z,19.11
2018-06-05T07:24:33.681Z,19.08
2018-06-05T07:25:33.706Z,19.11
2018-06-05T07:26:33.732Z,19.08
2018-06-05T07:27:33.745Z,19.01
2018-06-05T07:28:33.770Z,19.08
2018-06-05T07:29:33.797Z,19.11
2018-06-05T07:30:33.823Z,19.09
2018-06-05T07:31:33.848Z,19.17
2018-06-05T07:32:33.874Z,19.16
2018-06-05T07:33:33.901Z,19.15
2018-06-05T07:34:33.916Z,19.16
2018-06-05T07:35:33.940Z,19.22
2018-06-05T07:36:33.967Z,19.27
2018-06-05T07:37:33.992Z,19.37
2018-06-05T07:38:34.018Z,19.37
2018-06-05T07:39:34.044Z,19.47
2018-06-05T07:40:34.070Z,19.49
2018-06-05T07:41:34.098Z,19.55
2018-06-05T07:42:34.121Z,19.53
2018-06-05T07:43:34.134Z,19.62
2018-06-05T07:44:34.162Z,19.63
2018-06-05T07:45:34.186Z,19.77
2018-06-05T07:46:34.213Z,19.66
2018-06-05T07:47:34.238Z,19.77
2018-06-05T07:48:34.278Z,19.72
2018-06-05T07:49:34.292Z,19.77
2018-06-05T07:50:34.316Z,19.77
2018-06-05T07:51:34.342Z,19.82
2018-06-05T07:52:34.356Z,19.87
2018-06-05T07:53:34.382Z,19.89
2018-06-05T07:54:34.410Z,19.93
2018-06-05T07:55:34.434Z,20.03
2018-06-05T07:56:34.460Z,19.93
2018-06-05T07:57:34.486Z,20.07
2018-06-05T07:58:34.516Z,20.08
2018-06-05T07:59:34.539Z,20.12
2018-06-05T08:00:34.564Z,20.17
2018-06-05T08:01:34.596Z,20.17
2018-06-05T08:02:34.615Z,20.14
2018-06-05T08:03:34.642Z,20.22
2018-06-05T08:04:34.668Z,20.24
2018-06-05T08:05:34.693Z,20.24
2018-06-05T08:06:34.719Z,20.22
2018-06-05T08:07:34.732Z,20.34
2018-06-05T08:08:34.760Z,20.39
2018-06-05T08:09:34.797Z,20.39
2018-06-05T08:10:34.809Z,20.48
2018-06-05T08:11:34.867Z,20.49
2018-06-05T08:12:34.862Z,20.56
2018-06-05T08:13:34.888Z,20.66
2018-06-05T08:14:34.913Z,20.73
2018-06-05T08:15:34.939Z,20.82
2018-06-05T08:16:34.966Z,20.92
2018-06-05T08:17:34.993Z,20.93
2018-06-05T08:18:35.017Z,21.11
2018-06-05T08:19:35.044Z,21.03
2018-06-05T08:20:35.069Z,21.17
2018-06-05T08:21:35.096Z,21.22
2018-06-05T08:22:35.121Z,21.19
2018-06-05T08:23:35.147Z,21.26
2018-06-05T08:24:35.193Z,21.22
2018-06-05T08:25:35.200Z,21.29
2018-06-05T08:26:35.226Z,21.30
2018-06-05T08:27:35.254Z,21.33
2018-06-05T08:28:35.278Z,21.43
2018-06-05T08:29:35.303Z,21.45
2018-06-05T08:30:35.343Z,21.51
2018-06-05T08:31:35.354Z,21.58
2018-06-05T08:32:35.381Z,21.53
2018-06-05T08:33:35.408Z,21.54
2018-06-05T08:34:35.434Z,21.63
2018-06-05T08:35:35.463Z,21.63
2018-06-05T08:36:35.497Z,21.65
2018-06-05T08:37:35.524Z,21.72
2018-06-05T08:38:35.549Z,21.74
2018-06-05T08:39:35.575Z,21.70
2018-06-05T08:40:35.604Z,21.70
2018-06-05T08:41:35.626Z,21.77
2018-06-05T08:42:35.653Z,21.77
2018-06-05T08:43:35.680Z,21.72
2018-06-05T08:44:35.705Z,21.78
2018-06-05T08:45:35.731Z,21.77
2018-06-05T08:46:35.757Z,21.80
2018-06-05T08:47:35.787Z,21.74
2018-06-05T08:48:35.809Z,21.75
2018-06-05T08:49:35.835Z,21.74
2018-06-05T08:50:35.861Z,21.78
2018-06-05T08:51:35.887Z,21.78
2018-06-05T08:52:35.925Z,21.75
2018-06-05T08:53:35.953Z,21.77
2018-06-05T08:54:35.978Z,21.74
2018-06-05T08:55:36.003Z,21.74
2018-06-05T08:56:36.029Z,21.72
2018-06-05T08:57:36.054Z,21.78
2018-06-05T08:58:36.080Z,21.80
2018-06-05T08:59:36.119Z,21.83
2018-06-05T09:00:36.132Z,21.84
2018-06-05T09:01:36.161Z,21.80
2018-06-05T09:02:36.185Z,21.74
2018-06-05T09:03:36.210Z,21.63
2018-06-05T09:04:36.237Z,21.68
2018-06-05T09:05:36.261Z,21.63
2018-06-05T09:06:36.289Z,21.63
2018-06-05T09:07:36.313Z,21.69
2018-06-05T09:08:36.344Z,21.74
2018-06-05T09:09:36.366Z,21.81
2018-06-05T09:10:36.403Z,21.80
2018-06-05T09:11:36.431Z,21.72
2018-06-05T09:12:36.456Z,21.84
2018-06-05T09:13:36.483Z,21.80
2018-06-05T09:14:36.508Z,21.75
2018-06-05T09:15:36.535Z,21.62
2018-06-05T09:16:36.561Z,21.70
2018-06-05T09:17:36.588Z,21.66
2018-06-05T09:18:36.612Z,21.81
2018-06-05T09:19:36.638Z,21.77
2018-06-05T09:20:36.665Z,21.81
2018-06-05T09:21:36.701Z,21.74
2018-06-05T09:22:36.716Z,21.85
2018-06-05T09:23:36.741Z,21.91
2018-06-05T09:24:36.769Z,21.89
2018-06-05T09:25:36.805Z,22.00
2018-06-05T09:26:36.832Z,22.06
2018-06-05T09:27:36.858Z,22.08
2018-06-05T09:28:36.896Z,22.07
2018-06-05T09:29:36.909Z,22.16
2018-06-05T09:30:36.935Z,22.08
2018-06-05T09:31:36.963Z,22.22
2018-06-05T09:32:36.986Z,22.19
2018-06-05T09:33:37.013Z,22.26
2018-06-05T09:34:37.039Z,22.28
2018-06-05T09:35:37.066Z,22.30
2018-06-05T09:36:37.090Z,22.40
2018-06-05T09:37:37.129Z,22.36
2018-06-05T09:38:37.155Z,22.38
2018-06-05T09:39:37.235Z,22.49
2018-06-05T09:40:37.207Z,22.47
2018-06-05T09:41:37.233Z,22.46
2018-06-05T09:42:37.259Z,22.51
2018-06-05T09:43:37.285Z,22.46
2018-06-05T09:44:37.340Z,22.44
2018-06-05T09:45:37.336Z,22.47
2018-06-05T09:46:37.375Z,22.52
2018-06-05T09:47:37.400Z,22.40
2018-06-05T09:48:37.428Z,22.52
2018-06-05T09:49:37.452Z,22.59
2018-06-05T09:50:37.481Z,22.61
2018-06-05T09:51:37.517Z,22.55
2018-06-05T09:52:37.530Z,22.70
2018-06-05T09:53:37.557Z,22.68
2018-06-05T09:54:37.596Z,22.77
2018-06-05T09:55:37.621Z,22.76
2018-06-05T09:56:37.648Z,22.89
2018-06-05T09:57:37.723Z,22.86
2018-06-05T09:58:37.774Z,22.84
2018-06-05T09:59:37.726Z,22.74
2018-06-05T10:00:37.752Z,22.80
2018-06-05T10:01:37.777Z,22.95
2018-06-05T10:02:37.815Z,22.99
2018-06-05T10:03:37.846Z,22.95
2018-06-05T10:04:37.867Z,23.04
2018-06-05T10:05:37.906Z,23.04
2018-06-05T10:06:37.920Z,23.01
2018-06-05T10:07:37.946Z,23.07
2018-06-05T10:08:37.971Z,23.04
2018-06-05T10:09:38.011Z,23.20
2018-06-05T10:10:38.036Z,23.17
2018-06-05T10:11:38.062Z,23.32
2018-06-05T10:12:38.093Z,23.20
2018-06-05T10:13:38.113Z,23.21
2018-06-05T10:14:38.140Z,23.32
2018-06-05T10:15:38.177Z,23.37
2018-06-05T10:16:38.204Z,23.44
2018-06-05T10:17:38.229Z,23.55
2018-06-05T10:18:38.256Z,23.58
2018-06-05T10:19:38.294Z,23.64
2018-06-05T10:20:38.321Z,23.81
2018-06-05T10:21:38.345Z,23.84
2018-06-05T10:22:38.371Z,24.01
2018-06-05T10:23:38.399Z,24.09
2018-06-05T10:24:38.435Z,24.13
2018-06-05T10:25:38.461Z,24.21
2018-06-05T10:26:38.489Z,24.19
2018-06-05T10:27:38.513Z,24.25
2018-06-05T10:28:38.553Z,24.28
2018-06-05T10:29:38.578Z,24.34
2018-06-05T10:30:38.604Z,24.46
2018-06-05T10:31:38.630Z,24.41
2018-06-05T10:32:38.670Z,24.62
2018-06-05T10:33:38.694Z,24.58
2018-06-05T10:34:38.721Z,24.69
2018-06-05T10:35:38.746Z,24.65
2018-06-05T10:36:38.787Z,24.81
2018-06-05T10:37:38.811Z,24.56
2018-06-05T10:38:38.836Z,24.37
2018-06-05T10:39:38.874Z,24.37
2018-06-05T10:40:38.900Z,24.47
2018-06-05T10:41:38.945Z,24.48
2018-06-05T10:42:38.968Z,24.50
2018-06-05T10:43:38.991Z,24.48
2018-06-05T10:44:39.018Z,24.61
2018-06-05T10:45:39.092Z,24.56
2018-06-05T10:46:39.139Z,24.59
2018-06-05T10:47:39.110Z,24.61
2018-06-05T10:48:39.133Z,24.68
2018-06-05T10:49:39.171Z,24.75
2018-06-05T10:50:39.198Z,24.71
2018-06-05T10:51:39.224Z,24.77
2018-06-05T10:52:39.250Z,24.65
2018-06-05T10:53:39.307Z,24.71
2018-06-05T10:54:39.313Z,24.86
2018-06-05T10:55:39.342Z,24.74
2018-06-05T10:56:39.379Z,24.79
2018-06-05T10:57:39.405Z,24.81
2018-06-05T10:58:39.430Z,24.77
2018-06-05T10:59:39.463Z,24.79
2018-06-05T11:00:39.494Z,24.78
2018-06-05T11:01:39.520Z,24.79
2018-06-05T11:02:39.558Z,24.85
2018-06-05T11:03:39.589Z,24.77
2018-06-05T11:04:39.611Z,24.92
2018-06-05T11:05:39.637Z,24.97
2018-06-05T11:06:39.664Z,24.78
2018-06-05T11:07:39.701Z,24.88
2018-06-05T11:08:39.726Z,24.85
2018-06-05T11:09:39.753Z,24.86
2018-06-05T11:10:39.793Z,24.93
2018-06-05T11:11:39.818Z,24.93
2018-06-05T11:12:39.862Z,24.94
2018-06-05T11:13:39.868Z,24.84
2018-06-05T11:14:39.909Z,24.88
2018-06-05T11:15:39.933Z,24.81
2018-06-05T11:16:39.967Z,24.81
2018-06-05T11:17:39.986Z,24.75
2018-06-05T11:18:40.024Z,24.63
2018-06-05T11:19:40.050Z,24.65
2018-06-05T11:20:40.077Z,24.44
2018-06-05T11:21:40.102Z,24.21
2018-06-05T11:22:40.141Z,24.31
2018-06-05T11:23:40.223Z,24.25
2018-06-05T11:24:40.206Z,24.25
2018-06-05T11:25:40.218Z,24.24
2018-06-05T11:26:40.256Z,24.16
2018-06-05T11:27:40.283Z,24.11
2018-06-05T11:28:40.309Z,24.10
2018-06-05T11:29:40.337Z,24.00
2018-06-05T11:30:40.360Z,24.14
2018-06-05T11:31:40.398Z,24.16
2018-06-05T11:32:40.437Z,24.10
2018-06-05T11:33:40.450Z,23.95
2018-06-05T11:34:40.477Z,23.91
2018-06-05T11:35:40.502Z,23.89
2018-06-05T11:36:40.541Z,23.92
2018-06-05T11:37:40.567Z,23.92
2018-06-05T11:38:40.592Z,23.95
2018-06-05T11:39:40.622Z,24.07
2018-06-05T11:40:40.645Z,24.11
2018-06-05T11:41:40.683Z,24.10
2018-06-05T11:42:40.709Z,24.21
2018-06-05T11:43:40.735Z,24.29
2018-06-05T11:44:40.760Z,24.36
2018-06-05T11:45:40.800Z,24.40
2018-06-05T11:46:40.867Z,24.32
2018-06-05T11:47:40.852Z,24.43
2018-06-05T11:48:40.878Z,24.43
2018-06-05T11:49:40.922Z,24.41
2018-06-05T11:50:40.941Z,24.55
2018-06-05T11:51:40.967Z,24.53
2018-06-05T11:52:40.996Z,24.53
2018-06-05T11:53:41.019Z,24.47
2018-06-05T11:54:41.057Z,24.41
2018-06-05T11:55:41.084Z,24.25
2018-06-05T11:56:41.115Z,24.37
2018-06-05T11:57:41.136Z,24.41
2018-06-05T11:58:41.173Z,24.59
2018-06-05T11:59:41.201Z,24.85
2018-06-05T12:00:41.232Z,25.01
2018-06-05T12:01:41.304Z,25.33
2018-06-05T12:02:41.290Z,25.52
2018-06-05T12:03:41.316Z,25.77
2018-06-05T12:04:41.354Z,25.98
2018-06-05T12:05:41.381Z,26.34
2018-06-05T12:06:41.420Z,26.49
2018-06-05T12:07:41.446Z,26.93
2018-06-05T12:08:41.482Z,27.19
2018-06-05T12:10:41.548Z,27.63
2018-06-05T12:11:41.573Z,27.91
2018-06-05T12:12:41.613Z,28.00
2018-06-05T12:13:41.651Z,28.01
2018-06-05T12:14:41.677Z,28.04
2018-06-05T12:15:41.715Z,28.04
2018-06-05T12:16:41.753Z,28.18
2018-06-05T12:17:41.816Z,28.27
2018-06-05T12:18:41.817Z,28.25
2018-06-05T12:19:41.857Z,28.35
2018-06-05T12:20:41.882Z,28.22
2018-06-05T12:21:41.920Z,28.19
2018-06-05T12:22:41.958Z,28.18
2018-06-05T12:23:41.989Z,28.00
2018-06-05T12:24:42.023Z,28.06
2018-06-05T12:25:42.074Z,28.16
2018-06-05T12:26:42.088Z,28.30
2018-06-05T12:27:42.125Z,28.57
2018-06-05T12:28:42.153Z,28.71
2018-06-05T12:29:42.193Z,28.82
2018-06-05T12:30:42.229Z,29.10
2018-06-05T12:31:42.268Z,29.28
2018-06-05T12:32:42.296Z,29.50
2018-06-05T12:33:42.332Z,29.67
2018-06-05T12:34:42.370Z,30.03
2018-06-05T12:35:42.408Z,30.38
2018-06-05T12:36:42.434Z,30.63
2018-06-05T12:37:42.476Z,30.88
2018-06-05T12:38:42.512Z,31.05
2018-06-05T12:39:42.554Z,31.14
2018-06-05T12:40:42.588Z,31.28
2018-06-05T12:41:42.632Z,31.42
2018-06-05T12:42:42.664Z,31.54
2018-06-05T12:43:42.702Z,31.69
2018-06-05T12:44:42.741Z,31.67
2018-06-05T12:45:42.780Z,31.82
2018-06-05T12:46:42.819Z,31.95
2018-06-05T12:47:42.846Z,32.15
2018-06-05T12:48:42.883Z,32.04
2018-06-05T12:49:42.924Z,32.30
2018-06-05T12:50:42.960Z,32.44
2018-06-05T12:51:43.012Z,32.49
2018-06-05T12:52:43.037Z,32.68
2018-06-05T12:53:43.076Z,32.76